createdAt,value
2019-05-01T00:02:04.405Z,10.70
2019-05-01T00:06:14.804Z,10.60
2019-05-01T00:10:24.138Z,10.70
2019-05-01T00:14:32.639Z,10.70
2019-05-01T00:18:41.127Z,10.50
2019-05-01T00:22:49.580Z,10.30
2019-05-01T00:26:58.079Z,10.20
2019-05-01T00:31:06.554Z,10.10
2019-05-01T00:35:15.040Z,10.00
2019-05-01T00:39:23.782Z,10.00
2019-05-01T00:43:32.266Z,10.00
2019-05-01T00:47:40.775Z,10.00
2019-05-01T00:51:49.265Z,10.10
2019-05-01T00:56:11.343Z,10.10
2019-05-01T01:00:24.178Z,10.00
2019-05-01T01:04:32.673Z,10.00
2019-05-01T01:08:41.190Z,10.20
2019-05-01T01:12:49.669Z,10.30
2019-05-01T01:16:58.143Z,10.30
2019-05-01T01:21:06.603Z,10.20
2019-05-01T01:25:15.378Z,10.00
2019-05-01T01:29:23.856Z,10.00
2019-05-01T01:33:32.340Z,10.00
2019-05-01T01:37:40.818Z,10.00
2019-05-01T01:41:49.374Z,10.00
2019-05-01T01:46:02.138Z,9.70
2019-05-01T01:50:10.647Z,9.90
2019-05-01T01:54:19.366Z,9.70
2019-05-01T01:58:28.206Z,9.70
2019-05-01T02:02:41.034Z,9.80
2019-05-01T02:06:50.856Z,9.80
2019-05-01T02:10:59.883Z,9.90
2019-05-01T02:15:08.495Z,10.00
2019-05-01T02:19:16.976Z,9.80
2019-05-01T02:23:25.676Z,9.70
2019-05-01T02:27:41.557Z,9.60
2019-05-01T02:31:53.007Z,9.40
2019-05-01T02:36:02.523Z,9.50
2019-05-01T02:40:30.787Z,9.70
2019-05-01T02:44:42.601Z,9.70
2019-05-01T02:49:08.961Z,9.70
2019-05-01T02:53:19.980Z,9.50
2019-05-01T02:57:29.753Z,9.50
2019-05-01T03:01:46.986Z,9.50
2019-05-01T03:05:49.459Z,9.40
2019-05-01T03:09:58.072Z,9.40
2019-05-01T03:14:09.862Z,9.30
2019-05-01T03:18:24.323Z,9.30
2019-05-01T03:22:35.042Z,9.30
2019-05-01T03:26:43.825Z,9.40
2019-05-01T03:30:52.296Z,9.40
2019-05-01T03:35:00.836Z,9.40
2019-05-01T03:39:09.388Z,9.40
2019-05-01T03:43:17.966Z,9.40
2019-05-01T03:47:26.798Z,9.40
2019-05-01T03:51:36.461Z,9.40
2019-05-01T03:55:45.422Z,9.40
2019-05-01T03:59:53.942Z,9.50
2019-05-01T04:08:21.091Z,9.40
2019-05-01T04:12:29.609Z,9.40
2019-05-01T04:16:39.409Z,9.40
2019-05-01T04:20:48.019Z,9.40
2019-05-01T04:24:56.563Z,9.60
2019-05-01T04:29:07.075Z,9.70
2019-05-01T04:33:17.529Z,9.70
2019-05-01T04:37:26.622Z,9.70
2019-05-01T04:41:35.835Z,9.60
2019-05-01T04:45:44.303Z,9.60
2019-05-01T04:49:53.315Z,9.60
2019-05-01T04:54:02.001Z,9.60
2019-05-01T04:58:11.638Z,9.60
2019-05-01T05:02:24.845Z,9.60
2019-05-01T05:06:33.395Z,9.40
2019-05-01T05:10:42.096Z,9.50
2019-05-01T05:14:55.436Z,9.60
2019-05-01T05:19:03.988Z,9.50
2019-05-01T05:23:12.703Z,9.50
2019-05-01T05:27:21.713Z,9.40
2019-05-01T05:31:30.798Z,9.30
2019-05-01T05:35:41.110Z,9.30
2019-05-01T05:39:51.226Z,9.30
2019-05-01T05:44:20.575Z,9.40
2019-05-01T05:48:29.019Z,9.40
2019-05-01T05:52:39.262Z,9.50
2019-05-01T05:56:51.211Z,9.40
2019-05-01T06:01:06.827Z,9.50
2019-05-01T06:05:37.566Z,9.70
2019-05-01T06:09:50.494Z,9.70
2019-05-01T06:14:04.711Z,9.60
2019-05-01T06:18:20.415Z,9.60
2019-05-01T06:22:34.416Z,9.50
2019-05-01T06:26:43.115Z,9.60
2019-05-01T06:30:51.584Z,9.60
2019-05-01T06:35:03.039Z,9.50
2019-05-01T06:39:11.762Z,9.50
2019-05-01T06:43:28.675Z,9.60
2019-05-01T06:47:43.159Z,9.70
2019-05-01T06:51:53.382Z,9.70
2019-05-01T06:56:01.472Z,9.80
2019-05-01T07:00:13.244Z,9.90
2019-05-01T07:04:22.096Z,9.90
2019-05-01T07:08:34.188Z,9.80
2019-05-01T07:12:41.151Z,9.80
2019-05-01T07:16:50.025Z,9.80
2019-05-01T07:20:58.559Z,9.70
2019-05-01T07:25:09.234Z,9.70
2019-05-01T07:29:19.355Z,9.60
2019-05-01T07:33:28.835Z,9.50
2019-05-01T07:37:37.693Z,9.60
2019-05-01T07:41:46.587Z,9.80
2019-05-01T07:45:56.878Z,9.90
2019-05-01T07:50:08.446Z,10.00
2019-05-01T07:54:17.239Z,10.10
2019-05-01T07:58:25.910Z,10.00
2019-05-01T08:02:34.388Z,10.20
2019-05-01T08:06:42.878Z,10.30
2019-05-01T08:10:51.364Z,10.30
2019-05-01T08:14:59.869Z,10.40
2019-05-01T08:19:18.847Z,10.40
2019-05-01T08:23:27.326Z,10.40
2019-05-01T08:27:37.467Z,10.40
2019-05-01T08:31:50.090Z,10.50
2019-05-01T08:36:17.914Z,10.60
2019-05-01T08:40:26.399Z,10.40
2019-05-01T08:44:36.512Z,10.30
2019-05-01T08:48:46.699Z,10.40
2019-05-01T08:52:55.181Z,10.30
2019-05-01T08:57:03.839Z,10.40
2019-05-01T09:01:15.081Z,10.50
2019-05-01T09:05:28.717Z,10.60
2019-05-01T09:09:33.872Z,10.80
2019-05-01T09:13:42.992Z,10.90
2019-05-01T09:17:51.792Z,10.90
2019-05-01T09:22:00.634Z,11.00
2019-05-01T09:26:16.107Z,11.10
2019-05-01T09:30:26.971Z,11.20
2019-05-01T09:34:35.798Z,11.10
2019-05-01T09:38:44.319Z,11.10
2019-05-01T09:42:54.631Z,11.10
2019-05-01T09:47:03.075Z,11.20
2019-05-01T09:51:28.159Z,11.40
2019-05-01T09:55:38.278Z,11.60
2019-05-01T09:59:46.771Z,11.70
2019-05-01T10:03:56.454Z,11.70
2019-05-01T10:08:05.461Z,11.60
2019-05-01T10:12:14.063Z,11.60
2019-05-01T10:16:22.783Z,11.60
2019-05-01T10:20:31.366Z,11.80
2019-05-01T10:24:39.827Z,11.90
2019-05-01T10:28:51.528Z,12.10
2019-05-01T10:33:04.937Z,12.30
2019-05-01T10:37:13.423Z,12.30
2019-05-01T10:41:21.909Z,12.40
2019-05-01T10:45:50.146Z,12.10
2019-05-01T10:49:58.630Z,12.20
2019-05-01T10:54:07.082Z,12.30
2019-05-01T10:58:17.976Z,12.30
2019-05-01T11:02:25.783Z,12.30
2019-05-01T11:06:34.385Z,12.50
2019-05-01T11:10:42.883Z,12.60
2019-05-01T11:14:51.388Z,12.70
2019-05-01T11:18:59.855Z,12.70
2019-05-01T11:23:08.306Z,12.70
2019-05-01T11:27:16.851Z,12.80
2019-05-01T11:31:36.167Z,12.80
2019-05-01T11:36:08.353Z,12.80
2019-05-01T11:40:24.248Z,12.80
2019-05-01T11:44:32.744Z,12.60
2019-05-01T11:48:44.256Z,12.60
2019-05-01T11:53:03.798Z,12.70
2019-05-01T11:57:12.766Z,12.60
2019-05-01T12:01:22.873Z,12.70
2019-05-01T12:05:31.348Z,12.60
2019-05-01T12:09:40.063Z,12.50
2019-05-01T12:13:48.550Z,12.70
2019-05-01T12:17:56.994Z,12.60
2019-05-01T12:22:05.469Z,12.80
2019-05-01T12:26:13.976Z,13.00
2019-05-01T12:30:22.992Z,13.10
2019-05-01T12:34:31.479Z,13.00
2019-05-01T12:38:39.973Z,13.50
2019-05-01T12:42:48.527Z,13.80
2019-05-01T12:47:13.929Z,14.10
2019-05-01T12:51:22.424Z,14.30
2019-05-01T12:55:32.538Z,14.40
2019-05-01T12:59:41.026Z,14.70
2019-05-01T13:03:49.520Z,14.80
2019-05-01T13:07:58.006Z,14.60
2019-05-01T13:12:06.570Z,14.60
2019-05-01T13:16:15.073Z,14.70
2019-05-01T13:20:23.518Z,14.90
2019-05-01T13:24:51.358Z,15.00
2019-05-01T13:29:01.484Z,15.00
2019-05-01T13:33:10.031Z,15.00
2019-05-01T13:37:18.501Z,15.00
2019-05-01T13:41:27.004Z,15.10
2019-05-01T13:45:35.571Z,15.20
2019-05-01T13:49:44.104Z,15.20
2019-05-01T13:53:52.588Z,15.30
2019-05-01T13:58:01.081Z,15.20
2019-05-01T14:02:09.897Z,15.20
2019-05-01T14:06:18.385Z,15.20
2019-05-01T14:10:26.995Z,15.30
2019-05-01T14:14:35.485Z,15.10
2019-05-01T14:18:43.934Z,15.10
2019-05-01T14:22:54.091Z,15.10
2019-05-01T14:27:02.546Z,15.20
2019-05-01T14:31:11.115Z,15.20
2019-05-01T14:35:19.842Z,15.20
2019-05-01T14:39:28.567Z,15.40
2019-05-01T14:43:37.056Z,15.60
2019-05-01T14:47:45.527Z,15.50
2019-05-01T14:51:54.014Z,15.70
2019-05-01T14:56:02.525Z,15.60
2019-05-01T15:00:11.746Z,15.60
2019-05-01T15:04:20.313Z,15.70
2019-05-01T15:08:28.803Z,15.90
2019-05-01T15:12:37.324Z,16.10
2019-05-01T15:16:49.885Z,16.20
2019-05-01T15:21:19.328Z,16.10
2019-05-01T15:25:27.806Z,16.00
2019-05-01T15:29:36.624Z,16.20
2019-05-01T15:33:45.108Z,16.20
2019-05-01T15:37:56.825Z,16.10
2019-05-01T15:42:11.287Z,15.90
2019-05-01T15:46:23.434Z,15.80
2019-05-01T15:50:32.186Z,15.80
2019-05-01T15:54:40.672Z,15.90
2019-05-01T15:58:49.170Z,15.80
2019-05-01T16:02:57.880Z,15.80
2019-05-01T16:07:06.712Z,15.90
2019-05-01T16:11:31.819Z,16.10
2019-05-01T16:15:40.379Z,16.20
2019-05-01T16:19:48.858Z,16.30
2019-05-01T16:23:57.342Z,16.30
2019-05-01T16:28:05.790Z,16.30
2019-05-01T16:32:14.279Z,16.40
2019-05-01T16:36:22.741Z,16.40
2019-05-01T16:40:38.464Z,16.50
2019-05-01T16:44:46.919Z,16.40
2019-05-01T16:48:55.405Z,16.40
2019-05-01T16:53:03.958Z,16.30
2019-05-01T16:57:13.846Z,16.30
2019-05-01T17:01:24.310Z,16.20
2019-05-01T17:10:14.465Z,16.10
2019-05-01T17:14:23.109Z,15.90
2019-05-01T17:18:31.667Z,15.90
2019-05-01T17:22:40.166Z,15.80
2019-05-01T17:26:53.536Z,15.70
2019-05-01T17:31:02.032Z,15.70
2019-05-01T17:35:10.591Z,15.60
2019-05-01T17:39:19.301Z,15.60
2019-05-01T17:43:27.824Z,15.60
2019-05-01T17:47:36.275Z,15.50
2019-05-01T17:51:46.313Z,15.50
2019-05-01T17:55:55.271Z,15.40
2019-05-01T18:00:08.003Z,15.30
2019-05-01T18:04:27.331Z,15.20
2019-05-01T18:08:35.827Z,15.10
2019-05-01T18:12:44.559Z,15.00
2019-05-01T18:16:53.531Z,14.90
2019-05-01T18:21:02.172Z,14.80
2019-05-01T18:25:21.824Z,14.70
2019-05-01T18:29:35.562Z,14.60
2019-05-01T18:33:42.476Z,14.50
2019-05-01T18:37:52.641Z,14.40
2019-05-01T18:42:02.765Z,14.30
2019-05-01T18:46:13.087Z,14.20
2019-05-01T18:50:21.567Z,14.10
2019-05-01T18:54:30.398Z,14.00
2019-05-01T18:58:40.596Z,14.00
2019-05-01T19:02:49.314Z,13.90
2019-05-01T19:06:57.806Z,13.70
2019-05-01T19:11:12.638Z,13.60
2019-05-01T19:15:16.768Z,13.50
2019-05-01T19:19:25.315Z,13.40
2019-05-01T19:23:33.764Z,13.30
2019-05-01T19:27:42.253Z,13.30
2019-05-01T19:31:50.803Z,13.10
2019-05-01T19:36:02.505Z,13.10
2019-05-01T19:40:09.947Z,13.00
2019-05-01T19:44:20.015Z,13.00
2019-05-01T19:48:28.773Z,12.90
2019-05-01T19:52:37.833Z,12.80
2019-05-01T19:56:47.447Z,12.70
2019-05-01T20:00:58.056Z,12.70
2019-05-01T20:05:10.961Z,12.70
2019-05-01T20:09:18.747Z,12.70
2019-05-01T20:13:46.604Z,12.70
2019-05-01T20:17:55.059Z,12.60
2019-05-01T20:22:03.611Z,12.60
2019-05-01T20:26:12.091Z,12.50
2019-05-01T20:30:20.695Z,12.50
2019-05-01T20:34:29.431Z,12.50
2019-05-01T20:38:37.926Z,12.40
2019-05-01T20:42:46.381Z,12.30
2019-05-01T20:46:58.465Z,12.30
2019-05-01T20:51:05.471Z,12.20
2019-05-01T20:55:14.195Z,12.10
2019-05-01T20:59:22.670Z,12.00
2019-05-01T21:03:31.655Z,11.90
2019-05-01T21:07:41.800Z,11.80
2019-05-01T21:12:04.667Z,11.80
2019-05-01T21:16:03.819Z,11.80
2019-05-01T21:20:13.428Z,11.70
2019-05-01T21:24:23.926Z,11.70
2019-05-01T21:28:33.946Z,11.50
2019-05-01T21:32:44.316Z,11.50
2019-05-01T21:36:54.043Z,11.40
2019-05-01T21:41:02.892Z,11.50
2019-05-01T21:45:12.715Z,11.40
2019-05-01T21:49:22.931Z,11.40
2019-05-01T21:53:32.815Z,11.40
2019-05-01T21:57:41.556Z,11.40
2019-05-01T22:01:50.036Z,11.40
2019-05-01T22:05:58.507Z,11.40
2019-05-01T22:10:08.199Z,11.40
2019-05-01T22:14:31.130Z,11.40
2019-05-01T22:18:41.900Z,11.40
2019-05-01T22:22:52.175Z,11.30
2019-05-01T22:27:20.507Z,11.20
2019-05-01T22:31:33.391Z,11.10
2019-05-01T22:35:43.862Z,11.10
2019-05-01T22:44:18.044Z,10.90
2019-05-01T22:48:24.312Z,10.80
2019-05-01T22:52:32.804Z,10.70
2019-05-01T22:56:41.292Z,10.70
2019-05-01T23:00:54.410Z,10.70
2019-05-01T23:05:03.012Z,10.60
2019-05-01T23:09:13.584Z,10.50
2019-05-01T23:13:22.063Z,10.40
2019-05-01T23:17:34.955Z,10.40
2019-05-01T23:21:45.874Z,10.30
2019-05-01T23:25:52.608Z,10.30
2019-05-01T23:30:02.646Z,10.30
2019-05-01T23:34:11.182Z,10.20
2019-05-01T23:38:19.669Z,10.20
2019-05-01T23:42:28.162Z,10.10
2019-05-01T23:46:36.624Z,10.00
2019-05-01T23:50:45.160Z,10.00
2019-05-01T23:54:53.968Z,9.90
2019-05-01T23:59:02.448Z,9.90
